sensor_id;sensor_type;location;lat;lon;timestamp;pressure;altitude;pressure_sealevel;temperature;humidity
13456;BME280;6800;50.940;6.940;2023-05-19T00:01:06;101736.16;;;21.60;33.58
13456;BME280;6800;50.940;6.940;2023-05-19T00:05:10;101735.78;;;21.64;33.18
13456;BME280;6800;50.940;6.940;2023-05-19T00:09:13;101728.44;;;21.77;33.16
13456;BME280;6800;50.940;6.940;2023-05-19T00:13:14;101733.53;;;21.69;33.28
13456;BME280;6800;50.940;6.940;2023-05-19T00:17:16;101725.97;;;21.86;33.26
13456;BME280;6800;50.940;6.940;2023-05-19T00:21:18;101731.09;;;21.77;33.20
13456;BME280;6800;50.940;6.940;2023-05-19T00:25:19;101740.31;;;21.73;33.08
13456;BME280;6800;50.940;6.940;2023-05-19T00:29:21;101733.97;;;21.65;33.59
13456;BME280;6800;50.940;6.940;2023-05-19T00:33:22;101739.22;;;21.55;33.70
13456;BME280;6800;50.940;6.940;2023-05-19T00:37:24;101740.00;;;21.46;33.81
13456;BME280;6800;50.940;6.940;2023-05-19T00:41:25;101735.22;;;21.40;33.51
13456;BME280;6800;50.940;6.940;2023-05-19T00:45:27;101742.28;;;21.30;34.08
13456;BME280;6800;50.940;6.940;2023-05-19T00:49:29;101731.81;;;21.29;34.23
13456;BME280;6800;50.940;6.940;2023-05-19T00:53:32;101737.75;;;21.21;33.87
13456;BME280;6800;50.940;6.940;2023-05-19T00:57:34;101732.94;;;21.15;34.64
13456;BME280;6800;50.940;6.940;2023-05-19T01:01:35;101731.00;;;21.17;34.50
13456;BME280;6800;50.940;6.940;2023-05-19T01:05:39;101738.41;;;21.14;34.55
13456;BME280;6800;50.940;6.940;2023-05-19T01:09:42;101734.31;;;21.10;34.75
13456;BME280;6800;50.940;6.940;2023-05-19T01:13:44;101732.19;;;21.04;34.79
13456;BME280;6800;50.940;6.940;2023-05-19T01:18:01;101731.44;;;21.02;35.08
13456;BME280;6800;50.940;6.940;2023-05-19T01:30:21;101718.72;;;20.84;35.52
13456;BME280;6800;50.940;6.940;2023-05-19T01:34:26;101724.66;;;20.77;35.69
13456;BME280;6800;50.940;6.940;2023-05-19T01:38:28;101726.00;;;20.71;35.80
13456;BME280;6800;50.940;6.940;2023-05-19T01:42:31;101720.09;;;20.68;35.93
13456;BME280;6800;50.940;6.940;2023-05-19T01:46:37;101722.31;;;20.63;36.03
13456;BME280;6800;50.940;6.940;2023-05-19T01:50:40;101716.72;;;20.66;36.19
13456;BME280;6800;50.940;6.940;2023-05-19T01:54:42;101716.53;;;20.47;37.34
13456;BME280;6800;50.940;6.940;2023-05-19T01:58:46;101717.22;;;20.60;36.43
13456;BME280;6800;50.940;6.940;2023-05-19T02:07:19;101727.63;;;20.52;36.87
13456;BME280;6800;50.940;6.940;2023-05-19T02:11:36;101728.34;;;20.54;36.36
13456;BME280;6800;50.940;6.940;2023-05-19T02:15:43;101724.06;;;20.42;36.66
13456;BME280;6800;50.940;6.940;2023-05-19T02:19:45;101717.56;;;20.35;36.77
13456;BME280;6800;50.940;6.940;2023-05-19T02:23:47;101727.81;;;20.28;37.08
13456;BME280;6800;50.940;6.940;2023-05-19T02:27:51;101729.75;;;20.26;37.03
13456;BME280;6800;50.940;6.940;2023-05-19T02:31:53;101729.50;;;20.29;36.80
13456;BME280;6800;50.940;6.940;2023-05-19T02:35:55;101728.31;;;20.22;37.70
13456;BME280;6800;50.940;6.940;2023-05-19T02:39:57;101724.81;;;20.21;37.68
13456;BME280;6800;50.940;6.940;2023-05-19T02:43:58;101716.00;;;20.21;37.63
13456;BME280;6800;50.940;6.940;2023-05-19T02:48:00;101719.72;;;20.18;37.34
13456;BME280;6800;50.940;6.940;2023-05-19T02:52:02;101714.06;;;20.12;38.00
13456;BME280;6800;50.940;6.940;2023-05-19T02:56:04;101708.50;;;20.15;37.55
13456;BME280;6800;50.940;6.940;2023-05-19T03:00:05;101713.94;;;20.13;38.04
13456;BME280;6800;50.940;6.940;2023-05-19T03:04:08;101701.41;;;20.04;37.66
13456;BME280;6800;50.940;6.940;2023-05-19T03:08:09;101702.63;;;20.00;38.11
13456;BME280;6800;50.940;6.940;2023-05-19T03:12:11;101701.41;;;20.15;37.98
13456;BME280;6800;50.940;6.940;2023-05-19T03:16:12;101697.31;;;20.00;38.35
13456;BME280;6800;50.940;6.940;2023-05-19T03:20:14;101693.97;;;19.98;38.24
13456;BME280;6800;50.940;6.940;2023-05-19T03:24:18;101700.09;;;19.99;38.11
13456;BME280;6800;50.940;6.940;2023-05-19T03:28:20;101712.50;;;19.87;38.43
13456;BME280;6800;50.940;6.940;2023-05-19T03:32:21;101711.34;;;19.80;38.85
13456;BME280;6800;50.940;6.940;2023-05-19T03:36:23;101707.13;;;19.78;38.65
13456;BME280;6800;50.940;6.940;2023-05-19T03:40:24;101723.25;;;19.75;39.08
13456;BME280;6800;50.940;6.940;2023-05-19T03:44:26;101710.47;;;19.69;39.07
13456;BME280;6800;50.940;6.940;2023-05-19T03:48:27;101710.84;;;19.75;38.75
13456;BME280;6800;50.940;6.940;2023-05-19T03:52:28;101707.34;;;19.75;38.97
13456;BME280;6800;50.940;6.940;2023-05-19T03:56:30;101711.31;;;19.69;39.08
13456;BME280;6800;50.940;6.940;2023-05-19T04:00:32;101705.06;;;19.92;38.67
13456;BME280;6800;50.940;6.940;2023-05-19T04:04:34;101710.50;;;19.91;38.44
13456;BME280;6800;50.940;6.940;2023-05-19T04:08:40;101702.41;;;19.92;38.51
13456;BME280;6800;50.940;6.940;2023-05-19T04:12:41;101706.13;;;19.90;38.50
13456;BME280;6800;50.940;6.940;2023-05-19T04:16:43;101715.16;;;19.98;38.64
13456;BME280;6800;50.940;6.940;2023-05-19T04:20:44;101702.13;;;20.17;38.14
13456;BME280;6800;50.940;6.940;2023-05-19T04:24:46;101709.38;;;20.04;38.76
13456;BME280;6800;50.940;6.940;2023-05-19T04:28:47;101703.22;;;20.26;38.02
13456;BME280;6800;50.940;6.940;2023-05-19T04:32:49;101704.34;;;19.57;39.64
13456;BME280;6800;50.940;6.940;2023-05-19T04:36:51;101712.66;;;19.18;39.83
13456;BME280;6800;50.940;6.940;2023-05-19T04:40:53;101707.25;;;19.19;39.87
13456;BME280;6800;50.940;6.940;2023-05-19T04:44:56;101710.09;;;20.06;38.29
13456;BME280;6800;50.940;6.940;2023-05-19T04:48:58;101718.25;;;20.48;37.04
13456;BME280;6800;50.940;6.940;2023-05-19T04:53:01;101714.84;;;20.88;36.13
13456;BME280;6800;50.940;6.940;2023-05-19T04:57:03;101716.50;;;19.71;38.73
13456;BME280;6800;50.940;6.940;2023-05-19T05:01:04;101714.56;;;21.03;36.24
13456;BME280;6800;50.940;6.940;2023-05-19T05:05:06;101720.56;;;21.25;36.05
13456;BME280;6800;50.940;6.940;2023-05-19T05:09:08;101711.47;;;21.48;35.64
13456;BME280;6800;50.940;6.940;2023-05-19T05:13:10;101713.84;;;21.42;35.18
13456;BME280;6800;50.940;6.940;2023-05-19T05:17:12;101716.16;;;21.15;35.85
13456;BME280;6800;50.940;6.940;2023-05-19T05:21:14;101709.00;;;20.94;35.95
13456;BME280;6800;50.940;6.940;2023-05-19T05:25:16;101709.63;;;19.68;38.38
13456;BME280;6800;50.940;6.940;2023-05-19T05:29:18;101706.78;;;21.11;35.42
13456;BME280;6800;50.940;6.940;2023-05-19T05:33:20;101716.06;;;20.84;35.81
13456;BME280;6800;50.940;6.940;2023-05-19T05:37:22;101703.44;;;22.39;32.36
13456;BME280;6800;50.940;6.940;2023-05-19T05:41:24;101709.28;;;21.53;33.67
13456;BME280;6800;50.940;6.940;2023-05-19T05:45:25;101707.34;;;22.25;32.32
13456;BME280;6800;50.940;6.940;2023-05-19T05:49:27;101696.31;;;23.99;30.09
13456;BME280;6800;50.940;6.940;2023-05-19T05:53:29;101705.88;;;22.99;31.40
13456;BME280;6800;50.940;6.940;2023-05-19T05:57:32;101701.19;;;23.49;31.08
13456;BME280;6800;50.940;6.940;2023-05-19T06:01:35;101699.09;;;24.34;30.09
13456;BME280;6800;50.940;6.940;2023-05-19T06:05:37;101691.69;;;26.09;26.95
13456;BME280;6800;50.940;6.940;2023-05-19T06:09:39;101698.72;;;23.09;30.31
13456;BME280;6800;50.940;6.940;2023-05-19T06:13:40;101707.69;;;22.89;30.46
13456;BME280;6800;50.940;6.940;2023-05-19T06:17:42;101696.03;;;26.92;25.63
13456;BME280;6800;50.940;6.940;2023-05-19T06:21:43;101690.63;;;25.35;26.38
13456;BME280;6800;50.940;6.940;2023-05-19T06:25:45;101694.84;;;24.14;27.73
13456;BME280;6800;50.940;6.940;2023-05-19T06:29:47;101696.22;;;23.64;28.29
13456;BME280;6800;50.940;6.940;2023-05-19T06:33:48;101682.16;;;25.73;26.51
13456;BME280;6800;50.940;6.940;2023-05-19T06:37:49;101672.72;;;26.69;25.25
13456;BME280;6800;50.940;6.940;2023-05-19T06:41:51;101685.56;;;28.62;23.22
13456;BME280;6800;50.940;6.940;2023-05-19T06:45:52;101677.72;;;27.91;23.46
13456;BME280;6800;50.940;6.940;2023-05-19T06:49:54;101666.31;;;29.77;21.41
13456;BME280;6800;50.940;6.940;2023-05-19T06:53:56;101676.91;;;27.82;22.94
13456;BME280;6800;50.940;6.940;2023-05-19T06:57:57;101679.16;;;29.23;21.67
13456;BME280;6800;50.940;6.940;2023-05-19T07:02:00;101676.97;;;30.56;20.56
13456;BME280;6800;50.940;6.940;2023-05-19T07:06:02;101679.38;;;31.42;19.66
13456;BME280;6800;50.940;6.940;2023-05-19T07:10:07;101678.78;;;30.14;20.76
13456;BME280;6800;50.940;6.940;2023-05-19T07:14:09;101678.34;;;30.73;19.69
13456;BME280;6800;50.940;6.940;2023-05-19T07:18:10;101667.06;;;32.21;18.42
13456;BME280;6800;50.940;6.940;2023-05-19T07:22:11;101666.94;;;32.56;17.63
13456;BME280;6800;50.940;6.940;2023-05-19T07:26:13;101668.25;;;31.58;18.74
13456;BME280;6800;50.940;6.940;2023-05-19T07:30:14;101663.00;;;32.97;18.19
13456;BME280;6800;50.940;6.940;2023-05-19T07:34:16;101671.97;;;33.11;18.04
13456;BME280;6800;50.940;6.940;2023-05-19T07:38:17;101668.81;;;33.27;18.04
13456;BME280;6800;50.940;6.940;2023-05-19T07:42:19;101673.31;;;33.59;17.16
13456;BME280;6800;50.940;6.940;2023-05-19T07:46:20;101663.31;;;33.66;17.13
13456;BME280;6800;50.940;6.940;2023-05-19T07:50:22;101665.09;;;32.89;17.89
13456;BME280;6800;50.940;6.940;2023-05-19T07:54:24;101658.44;;;32.91;17.64
13456;BME280;6800;50.940;6.940;2023-05-19T07:58:25;101654.41;;;31.81;19.20
13456;BME280;6800;50.940;6.940;2023-05-19T08:02:27;101656.19;;;29.50;21.07
13456;BME280;6800;50.940;6.940;2023-05-19T08:06:28;101649.19;;;33.51;17.54
13456;BME280;6800;50.940;6.940;2023-05-19T08:10:30;101643.13;;;33.43;17.40
13456;BME280;6800;50.940;6.940;2023-05-19T08:14:32;101647.63;;;28.04;23.30
13456;BME280;6800;50.940;6.940;2023-05-19T08:18:34;101650.50;;;28.33;22.67
13456;BME280;6800;50.940;6.940;2023-05-19T08:22:36;101644.94;;;31.51;19.21
13456;BME280;6800;50.940;6.940;2023-05-19T08:26:37;101642.25;;;32.05;18.36
13456;BME280;6800;50.940;6.940;2023-05-19T08:30:39;101629.44;;;31.32;18.74
13456;BME280;6800;50.940;6.940;2023-05-19T08:34:40;101635.19;;;28.79;21.83
13456;BME280;6800;50.940;6.940;2023-05-19T08:38:42;101629.81;;;28.11;22.49
13456;BME280;6800;50.940;6.940;2023-05-19T08:42:44;101615.69;;;32.34;18.21
13456;BME280;6800;50.940;6.940;2023-05-19T08:46:46;101615.94;;;32.92;17.58
13456;BME280;6800;50.940;6.940;2023-05-19T08:55:14;101613.53;;;33.99;16.50
13456;BME280;6800;50.940;6.940;2023-05-19T08:59:21;101600.41;;;35.44;15.20
13456;BME280;6800;50.940;6.940;2023-05-19T09:03:23;101595.28;;;34.75;15.82
13456;BME280;6800;50.940;6.940;2023-05-19T09:07:28;101609.41;;;30.86;19.43
13456;BME280;6800;50.940;6.940;2023-05-19T09:11:30;101603.72;;;31.83;18.67
13456;BME280;6800;50.940;6.940;2023-05-19T09:15:33;101596.31;;;33.87;16.43
13456;BME280;6800;50.940;6.940;2023-05-19T09:19:42;101591.16;;;29.82;19.17
13456;BME280;6800;50.940;6.940;2023-05-19T09:23:45;101582.78;;;30.55;19.20
13456;BME280;6800;50.940;6.940;2023-05-19T09:27:48;101575.47;;;34.18;16.20
13456;BME280;6800;50.940;6.940;2023-05-19T09:35:53;101562.25;;;35.20;15.27
13456;BME280;6800;50.940;6.940;2023-05-19T09:39:55;101564.69;;;34.36;16.23
13456;BME280;6800;50.940;6.940;2023-05-19T09:43:56;101551.25;;;37.15;13.82
13456;BME280;6800;50.940;6.940;2023-05-19T09:48:02;101567.91;;;32.48;17.70
13456;BME280;6800;50.940;6.940;2023-05-19T09:52:06;101555.41;;;35.95;14.61
13456;BME280;6800;50.940;6.940;2023-05-19T09:56:08;101545.59;;;35.65;14.62
13456;BME280;6800;50.940;6.940;2023-05-19T10:00:10;101546.50;;;37.11;14.29
13456;BME280;6800;50.940;6.940;2023-05-19T10:04:15;101544.59;;;34.69;15.34
13456;BME280;6800;50.940;6.940;2023-05-19T10:08:17;101540.66;;;36.03;14.53
13456;BME280;6800;50.940;6.940;2023-05-19T10:12:19;101532.72;;;33.38;16.15
13456;BME280;6800;50.940;6.940;2023-05-19T10:16:23;101546.41;;;30.02;19.01
13456;BME280;6800;50.940;6.940;2023-05-19T10:20:26;101537.06;;;26.84;22.01
13456;BME280;6800;50.940;6.940;2023-05-19T10:24:28;101535.91;;;29.21;19.75
13456;BME280;6800;50.940;6.940;2023-05-19T10:28:34;101522.50;;;30.35;18.88
13456;BME280;6800;50.940;6.940;2023-05-19T10:32:38;101525.34;;;33.14;16.97
13456;BME280;6800;50.940;6.940;2023-05-19T10:36:46;101522.41;;;35.92;14.60
13456;BME280;6800;50.940;6.940;2023-05-19T10:40:55;101518.28;;;33.95;15.69
13456;BME280;6800;50.940;6.940;2023-05-19T10:45:14;101517.34;;;34.32;15.40
13456;BME280;6800;50.940;6.940;2023-05-19T10:49:21;101513.53;;;33.53;16.46
13456;BME280;6800;50.940;6.940;2023-05-19T10:53:31;101510.06;;;34.33;15.27
13456;BME280;6800;50.940;6.940;2023-05-19T10:57:33;101502.97;;;34.57;15.40
13456;BME280;6800;50.940;6.940;2023-05-19T11:01:35;101508.72;;;34.85;15.40
13456;BME280;6800;50.940;6.940;2023-05-19T11:05:39;101509.66;;;34.05;15.29
13456;BME280;6800;50.940;6.940;2023-05-19T11:09:40;101493.75;;;35.18;14.43
13456;BME280;6800;50.940;6.940;2023-05-19T11:13:45;101503.84;;;34.26;15.47
13456;BME280;6800;50.940;6.940;2023-05-19T11:17:48;101500.69;;;31.99;17.34
13456;BME280;6800;50.940;6.940;2023-05-19T11:21:51;101489.28;;;34.45;15.67
13456;BME280;6800;50.940;6.940;2023-05-19T11:25:55;101492.06;;;32.94;16.38
13456;BME280;6800;50.940;6.940;2023-05-19T11:29:58;101489.34;;;34.63;15.40
13456;BME280;6800;50.940;6.940;2023-05-19T11:34:00;101482.03;;;33.58;16.04
13456;BME280;6800;50.940;6.940;2023-05-19T11:38:02;101491.06;;;31.77;17.49
13456;BME280;6800;50.940;6.940;2023-05-19T11:42:04;101468.25;;;35.01;15.37
13456;BME280;6800;50.940;6.940;2023-05-19T11:46:06;101477.94;;;33.80;15.12
13456;BME280;6800;50.940;6.940;2023-05-19T11:50:09;101468.81;;;31.08;18.09
13456;BME280;6800;50.940;6.940;2023-05-19T11:54:13;101478.97;;;31.47;18.20
13456;BME280;6800;50.940;6.940;2023-05-19T11:58:14;101469.78;;;30.88;17.74
13456;BME280;6800;50.940;6.940;2023-05-19T12:02:22;101459.31;;;32.18;17.01
13456;BME280;6800;50.940;6.940;2023-05-19T12:06:26;101448.53;;;33.77;15.64
13456;BME280;6800;50.940;6.940;2023-05-19T12:10:31;101453.63;;;28.53;19.90
13456;BME280;6800;50.940;6.940;2023-05-19T12:14:34;101436.44;;;33.80;15.54
13456;BME280;6800;50.940;6.940;2023-05-19T12:18:36;101451.69;;;28.91;19.92
13456;BME280;6800;50.940;6.940;2023-05-19T12:22:38;101439.41;;;30.17;18.24
13456;BME280;6800;50.940;6.940;2023-05-19T12:26:40;101434.38;;;32.10;17.27
13456;BME280;6800;50.940;6.940;2023-05-19T12:30:46;101436.53;;;28.69;20.10
13456;BME280;6800;50.940;6.940;2023-05-19T12:34:52;101432.84;;;30.60;17.98
13456;BME280;6800;50.940;6.940;2023-05-19T12:38:54;101421.94;;;31.16;17.87
13456;BME280;6800;50.940;6.940;2023-05-19T12:42:55;101427.53;;;28.77;20.04
13456;BME280;6800;50.940;6.940;2023-05-19T12:47:03;101431.47;;;31.12;18.22
13456;BME280;6800;50.940;6.940;2023-05-19T12:51:05;101418.75;;;31.79;16.95
13456;BME280;6800;50.940;6.940;2023-05-19T12:55:07;101426.88;;;32.18;17.17
13456;BME280;6800;50.940;6.940;2023-05-19T12:59:09;101407.13;;;31.98;16.51
13456;BME280;6800;50.940;6.940;2023-05-19T13:03:18;101411.06;;;31.63;16.74
13456;BME280;6800;50.940;6.940;2023-05-19T13:07:20;101399.81;;;32.31;17.10
13456;BME280;6800;50.940;6.940;2023-05-19T13:11:22;101411.47;;;29.55;19.28
13456;BME280;6800;50.940;6.940;2023-05-19T13:15:25;101406.00;;;28.77;20.29
13456;BME280;6800;50.940;6.940;2023-05-19T13:19:27;101405.25;;;28.24;21.26
13456;BME280;6800;50.940;6.940;2023-05-19T13:23:28;101400.78;;;30.10;19.03
13456;BME280;6800;50.940;6.940;2023-05-19T13:27:29;101395.81;;;30.75;18.01
13456;BME280;6800;50.940;6.940;2023-05-19T13:31:31;101389.44;;;31.50;17.31
13456;BME280;6800;50.940;6.940;2023-05-19T13:35:33;101392.19;;;29.30;19.63
13456;BME280;6800;50.940;6.940;2023-05-19T13:39:42;101386.63;;;30.01;19.31
13456;BME280;6800;50.940;6.940;2023-05-19T13:43:44;101375.25;;;31.28;17.70
13456;BME280;6800;50.940;6.940;2023-05-19T13:47:45;101378.97;;;29.14;19.76
13456;BME280;6800;50.940;6.940;2023-05-19T13:51:46;101379.09;;;30.93;18.53
13456;BME280;6800;50.940;6.940;2023-05-19T13:55:48;101372.16;;;28.53;20.30
13456;BME280;6800;50.940;6.940;2023-05-19T13:59:53;101357.84;;;29.32;19.96
13456;BME280;6800;50.940;6.940;2023-05-19T14:04:04;101363.84;;;28.77;20.46
13456;BME280;6800;50.940;6.940;2023-05-19T14:08:06;101360.94;;;30.74;18.74
13456;BME280;6800;50.940;6.940;2023-05-19T14:12:08;101359.00;;;29.44;19.77
13456;BME280;6800;50.940;6.940;2023-05-19T14:16:12;101347.69;;;30.72;18.43
13456;BME280;6800;50.940;6.940;2023-05-19T14:20:13;101353.28;;;28.17;20.92
13456;BME280;6800;50.940;6.940;2023-05-19T14:24:15;101355.78;;;31.46;17.25
13456;BME280;6800;50.940;6.940;2023-05-19T14:28:16;101355.47;;;29.65;18.86
13456;BME280;6800;50.940;6.940;2023-05-19T14:32:18;101350.47;;;29.41;19.55
13456;BME280;6800;50.940;6.940;2023-05-19T14:36:20;101351.34;;;31.12;18.14
13456;BME280;6800;50.940;6.940;2023-05-19T14:40:21;101351.28;;;30.86;18.17
13456;BME280;6800;50.940;6.940;2023-05-19T14:44:23;101346.91;;;28.98;19.66
13456;BME280;6800;50.940;6.940;2023-05-19T14:48:24;101343.69;;;29.93;19.61
13456;BME280;6800;50.940;6.940;2023-05-19T14:52:26;101341.28;;;30.33;19.66
13456;BME280;6800;50.940;6.940;2023-05-19T14:56:27;101348.13;;;30.82;19.17
13456;BME280;6800;50.940;6.940;2023-05-19T15:00:29;101339.47;;;30.94;18.53
13456;BME280;6800;50.940;6.940;2023-05-19T15:04:30;101337.56;;;29.78;19.61
13456;BME280;6800;50.940;6.940;2023-05-19T15:08:32;101332.50;;;31.65;18.30
13456;BME280;6800;50.940;6.940;2023-05-19T15:12:33;101327.50;;;32.01;17.50
13456;BME280;6800;50.940;6.940;2023-05-19T15:16:35;101316.50;;;30.23;19.39
13456;BME280;6800;50.940;6.940;2023-05-19T15:20:36;101327.16;;;28.91;21.53
13456;BME280;6800;50.940;6.940;2023-05-19T15:24:38;101311.97;;;29.89;20.33
13456;BME280;6800;50.940;6.940;2023-05-19T15:28:41;101318.44;;;29.94;20.50
13456;BME280;6800;50.940;6.940;2023-05-19T15:32:42;101315.41;;;29.76;20.52
13456;BME280;6800;50.940;6.940;2023-05-19T15:36:44;101311.03;;;29.12;21.48
13456;BME280;6800;50.940;6.940;2023-05-19T15:40:45;101315.31;;;30.72;20.23
13456;BME280;6800;50.940;6.940;2023-05-19T15:44:47;101304.75;;;28.04;21.67
13456;BME280;6800;50.940;6.940;2023-05-19T15:48:49;101301.38;;;28.75;20.83
13456;BME280;6800;50.940;6.940;2023-05-19T15:52:50;101298.78;;;30.35;19.34
13456;BME280;6800;50.940;6.940;2023-05-19T15:56:52;101302.47;;;30.74;19.21
13456;BME280;6800;50.940;6.940;2023-05-19T16:00:53;101305.28;;;29.15;20.62
13456;BME280;6800;50.940;6.940;2023-05-19T16:04:54;101308.97;;;29.28;20.52
13456;BME280;6800;50.940;6.940;2023-05-19T16:08:56;101294.75;;;28.13;22.07
13456;BME280;6800;50.940;6.940;2023-05-19T16:12:58;101286.88;;;28.26;21.52
13456;BME280;6800;50.940;6.940;2023-05-19T16:16:59;101284.88;;;28.49;21.15
13456;BME280;6800;50.940;6.940;2023-05-19T16:21:03;101273.34;;;29.48;20.31
13456;BME280;6800;50.940;6.940;2023-05-19T16:25:05;101284.63;;;28.59;22.11
13456;BME280;6800;50.940;6.940;2023-05-19T16:29:07;101275.78;;;27.25;22.58
13456;BME280;6800;50.940;6.940;2023-05-19T16:33:08;101265.56;;;26.45;23.72
13456;BME280;6800;50.940;6.940;2023-05-19T16:37:10;101260.81;;;27.82;21.83
13456;BME280;6800;50.940;6.940;2023-05-19T16:41:11;101263.31;;;28.57;21.40
13456;BME280;6800;50.940;6.940;2023-05-19T16:45:13;101270.19;;;28.81;21.49
13456;BME280;6800;50.940;6.940;2023-05-19T16:49:17;101265.53;;;29.31;20.58
13456;BME280;6800;50.940;6.940;2023-05-19T16:53:18;101259.91;;;29.05;21.12
13456;BME280;6800;50.940;6.940;2023-05-19T16:57:20;101267.63;;;28.22;21.70
13456;BME280;6800;50.940;6.940;2023-05-19T17:01:21;101263.31;;;28.42;22.02
13456;BME280;6800;50.940;6.940;2023-05-19T17:05:23;101258.88;;;29.06;21.63
13456;BME280;6800;50.940;6.940;2023-05-19T17:09:24;101258.63;;;27.86;22.18
13456;BME280;6800;50.940;6.940;2023-05-19T17:13:26;101244.31;;;27.19;23.54
13456;BME280;6800;50.940;6.940;2023-05-19T17:17:33;101254.16;;;27.93;22.92
13456;BME280;6800;50.940;6.940;2023-05-19T17:21:35;101257.31;;;27.67;22.72
13456;BME280;6800;50.940;6.940;2023-05-19T17:25:36;101262.22;;;28.37;21.61
13456;BME280;6800;50.940;6.940;2023-05-19T17:29:38;101267.28;;;28.82;21.99
13456;BME280;6800;50.940;6.940;2023-05-19T17:33:39;101267.19;;;28.90;21.16
13456;BME280;6800;50.940;6.940;2023-05-19T17:37:41;101263.41;;;28.85;21.69
13456;BME280;6800;50.940;6.940;2023-05-19T17:41:42;101279.09;;;28.31;22.68
13456;BME280;6800;50.940;6.940;2023-05-19T17:45:44;101274.13;;;27.24;23.31
13456;BME280;6800;50.940;6.940;2023-05-19T17:49:45;101274.19;;;26.93;23.51
13456;BME280;6800;50.940;6.940;2023-05-19T17:53:48;101280.31;;;26.49;24.41
13456;BME280;6800;50.940;6.940;2023-05-19T17:57:49;101285.69;;;27.47;23.27
13456;BME280;6800;50.940;6.940;2023-05-19T18:01:51;101296.47;;;26.55;24.41
13456;BME280;6800;50.940;6.940;2023-05-19T18:05:53;101299.81;;;27.41;23.29
13456;BME280;6800;50.940;6.940;2023-05-19T18:09:55;101295.47;;;27.77;22.99
13456;BME280;6800;50.940;6.940;2023-05-19T18:13:56;101295.72;;;27.68;23.09
13456;BME280;6800;50.940;6.940;2023-05-19T18:17:58;101305.31;;;27.48;23.28
13456;BME280;6800;50.940;6.940;2023-05-19T18:22:00;101302.84;;;27.75;23.46
13456;BME280;6800;50.940;6.940;2023-05-19T18:26:01;101310.03;;;27.60;23.47
13456;BME280;6800;50.940;6.940;2023-05-19T18:30:03;101314.16;;;27.86;22.86
13456;BME280;6800;50.940;6.940;2023-05-19T18:34:05;101317.09;;;26.16;25.16
13456;BME280;6800;50.940;6.940;2023-05-19T18:38:06;101317.16;;;28.20;22.92
13456;BME280;6800;50.940;6.940;2023-05-19T18:42:08;101312.66;;;27.68;22.85
13456;BME280;6800;50.940;6.940;2023-05-19T18:46:09;101324.66;;;27.13;23.89
13456;BME280;6800;50.940;6.940;2023-05-19T18:50:11;101320.31;;;26.89;24.02
13456;BME280;6800;50.940;6.940;2023-05-19T18:54:13;101321.72;;;26.69;24.77
13456;BME280;6800;50.940;6.940;2023-05-19T18:58:16;101325.13;;;27.16;24.05
13456;BME280;6800;50.940;6.940;2023-05-19T19:02:18;101318.59;;;26.02;25.08
13456;BME280;6800;50.940;6.940;2023-05-19T19:06:19;101332.31;;;26.15;25.62
13456;BME280;6800;50.940;6.940;2023-05-19T19:10:22;101339.81;;;26.20;25.26
13456;BME280;6800;50.940;6.940;2023-05-19T19:14:24;101343.88;;;25.84;25.70
13456;BME280;6800;50.940;6.940;2023-05-19T19:18:26;101341.28;;;26.30;25.49
13456;BME280;6800;50.940;6.940;2023-05-19T19:22:27;101348.88;;;26.58;25.04
13456;BME280;6800;50.940;6.940;2023-05-19T19:26:29;101351.44;;;27.21;24.54
13456;BME280;6800;50.940;6.940;2023-05-19T19:30:30;101357.72;;;25.31;26.72
13456;BME280;6800;50.940;6.940;2023-05-19T19:34:32;101356.44;;;25.43;26.52
13456;BME280;6800;50.940;6.940;2023-05-19T19:38:35;101370.91;;;26.84;25.19
13456;BME280;6800;50.940;6.940;2023-05-19T19:42:36;101370.13;;;26.20;26.36
13456;BME280;6800;50.940;6.940;2023-05-19T19:46:38;101371.38;;;26.49;26.18
13456;BME280;6800;50.940;6.940;2023-05-19T19:50:40;101383.41;;;26.45;25.96
13456;BME280;6800;50.940;6.940;2023-05-19T19:54:42;101388.03;;;25.55;27.03
13456;BME280;6800;50.940;6.940;2023-05-19T19:58:43;101383.69;;;26.11;26.29
13456;BME280;6800;50.940;6.940;2023-05-19T20:02:45;101386.78;;;26.39;26.41
13456;BME280;6800;50.940;6.940;2023-05-19T20:06:51;101385.84;;;25.83;26.75
13456;BME280;6800;50.940;6.940;2023-05-19T20:10:53;101388.19;;;25.62;27.33
13456;BME280;6800;50.940;6.940;2023-05-19T20:14:55;101385.38;;;26.12;26.87
13456;BME280;6800;50.940;6.940;2023-05-19T20:18:56;101392.06;;;25.68;27.57
13456;BME280;6800;50.940;6.940;2023-05-19T20:22:58;101402.09;;;25.66;27.26
13456;BME280;6800;50.940;6.940;2023-05-19T20:26:59;101404.88;;;25.40;27.54
13456;BME280;6800;50.940;6.940;2023-05-19T20:31:01;101403.91;;;25.81;27.07
13456;BME280;6800;50.940;6.940;2023-05-19T20:35:02;101413.78;;;25.89;27.18
13456;BME280;6800;50.940;6.940;2023-05-19T20:39:04;101408.97;;;27.10;25.53
13456;BME280;6800;50.940;6.940;2023-05-19T20:43:07;101421.53;;;25.26;27.65
13456;BME280;6800;50.940;6.940;2023-05-19T20:47:08;101415.59;;;26.04;26.94
13456;BME280;6800;50.940;6.940;2023-05-19T20:51:10;101413.41;;;26.32;26.57
13456;BME280;6800;50.940;6.940;2023-05-19T20:55:12;101421.66;;;25.82;27.15
13456;BME280;6800;50.940;6.940;2023-05-19T20:59:13;101431.00;;;25.46;27.74
13456;BME280;6800;50.940;6.940;2023-05-19T21:03:14;101422.34;;;25.68;27.21
13456;BME280;6800;50.940;6.940;2023-05-19T21:07:16;101428.94;;;25.40;27.90
13456;BME280;6800;50.940;6.940;2023-05-19T21:11:18;101426.66;;;26.25;26.85
13456;BME280;6800;50.940;6.940;2023-05-19T21:15:19;101438.53;;;25.50;28.09
13456;BME280;6800;50.940;6.940;2023-05-19T21:19:21;101428.94;;;24.90;28.78
13456;BME280;6800;50.940;6.940;2023-05-19T21:23:23;101437.56;;;25.18;29.05
13456;BME280;6800;50.940;6.940;2023-05-19T21:27:25;101444.94;;;25.24;28.53
13456;BME280;6800;50.940;6.940;2023-05-19T21:31:26;101442.63;;;25.29;28.73
13456;BME280;6800;50.940;6.940;2023-05-19T21:35:28;101443.81;;;24.59;29.37
13456;BME280;6800;50.940;6.940;2023-05-19T21:39:29;101442.72;;;25.11;28.77
13456;BME280;6800;50.940;6.940;2023-05-19T21:43:30;101445.00;;;25.40;28.58